Hales Eddy, New York
Current Conditions -  °F | °C
As of 1:35 AM on Tuesday 21 Oct 2014 (Local Time) from KMSV Reporting Station
Broken Clouds Broken Clouds  
Wind Chill: 42°   Ceiling: 9500
Heat Index: 45°   Visibility: 10mi
Dew Point: 39°   Wind: 5mph
Humidity: 81%   Direction: 110°ESE
Pressure: 29.92"   Gusts: NA
Location:  41.9099°N, 75.1815°W
Report Text: KMSV 210535Z AUTO 11004KT 10SM BKN095 07/04 A2992 RMK AO1
Loading
Personal Weather Stations






























Interactive Weather Map
Tropical Storm Tracking
New forecast layout! Learn more

10-Day Weather Forecast

Advertisements
Track Severe Weather on mobile